Dades meteomassalio
Diari Summary for Octubre 31, 2017 Units:  Metric    English   Both
« Previous Day
Next Day »
Diari Semanal Mensual Anual Personalitzat
  Maxima: Minima: Mijana:
Temperatura: -17.8 °C -17.2 °C -12.8 °C
Rosada: -17.8 °C -18.4 °C -15.9 °C
Humitat: Humidity % 48 % 70 %
Velocitat del vent: 0 km/h 0 km/h 5 km/h
Racha vent: 0 km/h - -
Vent:- - SW
Pressio: 0 hPa 34645.6 hPa -
Pluja: 0 mm    
Historical Graphs
 
 
Tabular Data for Octubre 31, 2017
Time Temperature Dew Point Pressure Wind Wind Speed Wind Gust Humidity Rainfall Rate (Hourly) solar Conditions
-17.8 °C -17.8 °C 0 hPa Calm     Humidity % 0 mm SolarRadiationWatts/m^2 W/m2 Conditions
00:04 -12.6 °C -15.8 °C 34682.8 hPa SSW 26.9 km/h 26.9 km/h 67 % 0 mm 0.0 W/m2 CLR
00:09 -12.6 °C -15.8 °C 34682.8 hPa SSE 26.9 km/h 26.9 km/h 67 % 0 mm 0.0 W/m2 CLR
00:14 -12.6 °C -15.7 °C 34682.8 hPa SSE 17.9 km/h 17.9 km/h 68 % 0 mm 0.0 W/m2 CLR
00:19 -12.6 °C -15.7 °C 34682.8 hPa SSE 15.6 km/h 15.6 km/h 68 % 0 mm 0.0 W/m2 CLR
00:24 -12.6 °C -15.5 °C 34682.8 hPa SSE 15 km/h 15 km/h 69 % 0 mm 0.0 W/m2 CLR
00:29 -12.6 °C -15.5 °C 34682.8 hPa Calm     69 % 0 mm 0.0 W/m2 CLR
00:34 -12.6 °C -15.4 °C 34682.8 hPa SSE 9 km/h 9 km/h 70 % 0 mm 0.0 W/m2 CLR
00:39 -12.2 °C -15.1 °C 34682.8 hPa SSE 12.9 km/h 12.9 km/h 70 % 0 mm 0.0 W/m2 CLR
00:44 -12.2 °C -15 °C 34693 hPa Calm     71 % 0 mm 0.0 W/m2 CLR
00:49 -12.2 °C -15 °C 34693 hPa Calm     71 % 0 mm 0.0 W/m2 CLR
00:54 -12.6 °C -15.3 °C 34693 hPa Calm     71 % 0 mm 0.0 W/m2 CLR
00:59 -12.6 °C -15.3 °C 34693 hPa Calm     71 % 0 mm 0.0 W/m2 CLR
01:04 -12.8 °C -15.6 °C 34693 hPa SSW 20.8 km/h 20.8 km/h 71 % 0 mm 0.0 W/m2 CLR
01:09 -13.4 °C -16.2 °C 34693 hPa Calm     71 % 0 mm 0.0 W/m2 CLR
01:14 -13.4 °C -16.2 °C 34682.8 hPa Calm     71 % 0 mm 0.0 W/m2 CLR
01:19 -13.8 °C -16.5 °C 34682.8 hPa Calm     71 % 0 mm 0.0 W/m2 CLR
01:24 -14.1 °C -16.7 °C 34682.8 hPa Calm     72 % 0 mm 0.0 W/m2 CLR
01:34 -14.4 °C -16.8 °C 34682.8 hPa South 17.9 km/h 17.9 km/h 74 % 0 mm 0.0 W/m2 CLR
01:39 -14.7 °C -17.1 °C 34682.8 hPa SSE 15 km/h 15 km/h 74 % 0 mm 0.0 W/m2 CLR
01:44 -14.7 °C -17.1 °C 34682.8 hPa South 10.3 km/h 10.3 km/h 74 % 0 mm 0.0 W/m2 CLR
01:49 -14.7 °C -17 °C 34682.8 hPa SSE 11.9 km/h 11.9 km/h 75 % 0 mm 0.0 W/m2 CLR
01:54 -15 °C -17.3 °C 34682.8 hPa Calm     75 % 0 mm 0.0 W/m2 CLR
01:59 -15 °C -17.4 °C 34693 hPa Calm     74 % 0 mm 0.0 W/m2 CLR
02:04 -15 °C -17.3 °C 34693 hPa Calm     75 % 0 mm 0.0 W/m2 CLR
02:09 -15.3 °C -17.6 °C 34693 hPa Calm     75 % 0 mm 0.0 W/m2 CLR
02:19 -15.3 °C -17.6 °C 34693 hPa Calm     75 % 0 mm 0.0 W/m2 CLR
02:24 -15.3 °C -17.6 °C 34693 hPa Calm     75 % 0 mm 0.0 W/m2 CLR
02:29 -15.3 °C -17.6 °C 34693 hPa Calm     75 % 0 mm 0.0 W/m2 CLR
02:34 -15.6 °C -17.7 °C 34682.8 hPa Calm     76 % 0 mm 0.0 W/m2 CLR
02:40 -15.6 °C -17.7 °C 34682.8 hPa SSE 12.9 km/h 12.9 km/h 76 % 0 mm 0.0 W/m2 CLR
02:45 -15.6 °C -17.7 °C 34682.8 hPa SSE 18.2 km/h 18.2 km/h 77 % 0 mm 0.0 W/m2 CLR
02:50 -15.9 °C -17.9 °C 34682.8 hPa SSE 26.9 km/h 26.9 km/h 77 % 0 mm 0.0 W/m2 CLR
02:55 -15.9 °C -17.9 °C 34682.8 hPa SSE 20.9 km/h 20.9 km/h 77 % 0 mm 0.0 W/m2 CLR
03:00 -15.9 °C -17.9 °C 34682.8 hPa SSE 17.9 km/h 17.9 km/h 77 % 0 mm 0.0 W/m2 CLR
03:05 -15.9 °C -17.9 °C 34682.8 hPa SSE 18.2 km/h 18.2 km/h 77 % 0 mm 0.0 W/m2 CLR
03:10 -15.9 °C -17.9 °C 34682.8 hPa SSE 26.9 km/h 26.9 km/h 78 % 0 mm 0.0 W/m2 CLR
03:15 -16.2 °C -18.1 °C 34682.8 hPa South 20.8 km/h 20.8 km/h 79 % 0 mm 0.0 W/m2 CLR
03:20 -16.2 °C -18.2 °C 34682.8 hPa SSE 15.6 km/h 15.6 km/h 78 % 0 mm 0.0 W/m2 CLR
03:25 -16.2 °C -18.1 °C 34682.8 hPa SSE 20.9 km/h 20.9 km/h 79 % 0 mm 0.0 W/m2 CLR
03:30 -16.2 °C -18.1 °C 34682.8 hPa South 18.2 km/h 18.2 km/h 79 % 0 mm 0.0 W/m2 CLR
03:35 -16.2 °C -17.9 °C 34669.3 hPa South 20.9 km/h 20.9 km/h 80 % 0 mm 0.0 W/m2 CLR
03:40 -16.2 °C -18.1 °C 34682.8 hPa SSE 23.8 km/h 23.8 km/h 79 % 0 mm 0.0 W/m2 CLR
03:45 -16.2 °C -18.2 °C 34682.8 hPa SE 15 km/h 15 km/h 78 % 0 mm 0.0 W/m2 CLR
03:50 -16.2 °C -18.2 °C 34682.8 hPa South 10.3 km/h 10.3 km/h 78 % 0 mm 0.0 W/m2 CLR
03:55 -16.2 °C -18.2 °C 34682.8 hPa SE 9 km/h 9 km/h 78 % 0 mm 0.0 W/m2 CLR
04:00 -16.2 °C -18.1 °C 34682.8 hPa SE 9 km/h 9 km/h 79 % 0 mm 0.0 W/m2 CLR
04:05 -16.2 °C -18.1 °C 34682.8 hPa SE 9 km/h 9 km/h 79 % 0 mm 0.0 W/m2 CLR
04:10 -16.2 °C -18.1 °C 34682.8 hPa SSE 10.3 km/h 10.3 km/h 79 % 0 mm 0.0 W/m2 CLR
04:17 -16.2 °C -17.9 °C 34682.8 hPa SE 11.9 km/h 11.9 km/h 80 % 0 mm 0.0 W/m2 CLR
04:21 -16.2 °C -17.9 °C 34682.8 hPa SSE 12.9 km/h 12.9 km/h 81 % 0 mm 0.0 W/m2 CLR
04:24 -16.2 °C -17.9 °C 34682.8 hPa SSE 12.9 km/h 12.9 km/h 81 % 0 mm 0.0 W/m2 CLR
04:26 -16.2 °C -17.9 °C 34682.8 hPa SSE 15 km/h 15 km/h 81 % 0 mm 0.0 W/m2 CLR
04:27 -16.2 °C -17.9 °C 34682.8 hPa SSE 15.6 km/h 15.6 km/h 81 % 0 mm 0.0 W/m2 CLR
04:29 -16.6 °C -18.1 °C 34682.8 hPa SSE 15 km/h 15 km/h 82 % 0 mm 0.0 W/m2 CLR
04:30 -16.6 °C -18.1 °C 34682.8 hPa SSE 11.9 km/h 11.9 km/h 82 % 0 mm 0.0 W/m2 CLR
04:32 -16.6 °C -18.1 °C 34693 hPa SSE 15.6 km/h 15.6 km/h 82 % 0 mm 0.0 W/m2 CLR
04:41 -16.6 °C -18 °C 34693 hPa South 15.6 km/h 15.6 km/h 83 % 0 mm 0.0 W/m2 CLR
04:46 -16.6 °C -18 °C 34693 hPa South 11.9 km/h 11.9 km/h 83 % 0 mm 0.0 W/m2 CLR
04:51 -16.6 °C -18.1 °C 34693 hPa Calm     82 % 0 mm 0.0 W/m2 CLR
04:56 -16.6 °C -18.2 °C 34693 hPa Calm     81 % 0 mm 0.0 W/m2 CLR
05:01 -16.6 °C -18.2 °C 34693 hPa SSE 12.9 km/h 12.9 km/h 81 % 0 mm 0.0 W/m2 CLR
05:06 -16.6 °C -18.1 °C 34693 hPa SSE 11.9 km/h 11.9 km/h 82 % 0 mm 0.0 W/m2 CLR
05:11 -16.6 °C -18 °C 34693 hPa SSE 11.9 km/h 11.9 km/h 83 % 0 mm 0.0 W/m2 CLR
05:16 -16.8 °C -18.3 °C 34693 hPa SSE 11.9 km/h 11.9 km/h 83 % 0 mm 0.0 W/m2 CLR
05:21 -16.8 °C -18.2 °C 34703.1 hPa Calm     84 % 0 mm 0.0 W/m2 CLR
05:26 -16.8 °C -18.2 °C 34703.1 hPa Calm     84 % 0 mm 0.0 W/m2 CLR
05:31 -16.8 °C -18.2 °C 34703.1 hPa Calm     84 % 0 mm 0.0 W/m2 CLR
05:36 -16.8 °C -18.2 °C 34703.1 hPa Calm     84 % 0 mm 0.0 W/m2 CLR
05:41 -16.8 °C -18.2 °C 34703.1 hPa Calm     84 % 0 mm 0.0 W/m2 CLR
05:46 -16.8 °C -18.2 °C 34703.1 hPa Calm     84 % 0 mm 0.0 W/m2 CLR
05:51 -16.8 °C -18.2 °C 34703.1 hPa Calm     84 % 0 mm 0.0 W/m2 CLR
05:56 -16.8 °C -18.2 °C 34703.1 hPa Calm     84 % 0 mm 0.0 W/m2 CLR
06:01 -16.8 °C -18.1 °C 34703.1 hPa Calm     85 % 0 mm 0.0 W/m2 CLR
06:06 -17.2 °C -18.4 °C 34703.1 hPa Calm     85 % 0 mm 0.0 W/m2 CLR
06:11 -17.2 °C -18.4 °C 34703.1 hPa Calm     85 % 0 mm 0.0 W/m2 CLR
06:22 -17.2 °C -18.4 °C 34703.1 hPa Calm     85 % 0 mm 0.0 W/m2 CLR
06:32 -17.2 °C -18.4 °C 34703.1 hPa Calm     85 % 0 mm 0.0 W/m2 CLR
06:37 -17.2 °C -18.3 °C 34703.1 hPa Calm     86 % 0 mm 0.0 W/m2 CLR
06:42 -17.2 °C -18.3 °C 34703.1 hPa Calm     86 % 0 mm 0.0 W/m2 CLR
06:47 -17.2 °C -18.3 °C 34703.1 hPa Calm     86 % 0 mm 0.0 W/m2 CLR
06:52 -17.2 °C -18.3 °C 34703.1 hPa Calm     86 % 0 mm 0.0 W/m2 CLR
06:57 -17.2 °C -18.3 °C 34703.1 hPa Calm     86 % 0 mm 0.0 W/m2 CLR
07:02 -17.2 °C -18.3 °C 34703.1 hPa Calm     86 % 0 mm 0.0 W/m2 CLR
07:07 -17.2 °C -18.3 °C 34716.7 hPa Calm     86 % 0 mm 0.0 W/m2 CLR
07:12 -17.2 °C -18.2 °C 34716.7 hPa Calm     87 % 0 mm 0.0 W/m2 CLR
07:17 -17.2 °C -18.3 °C 34716.7 hPa Calm     86 % 0 mm 0.0 W/m2 CLR
07:22 -17.2 °C -18.3 °C 34716.7 hPa Calm     86 % 0 mm 0.0 W/m2 OVC
07:27 -17.2 °C -18.3 °C 34716.7 hPa Calm     86 % 0 mm 0.0 W/m2 OVC
07:32 -17.2 °C -18.3 °C 34716.7 hPa Calm     86 % 0 mm 5.0 W/m2 OVC
07:37 -16.8 °C -18 °C 34726.8 hPa Calm     86 % 0 mm 9.0 W/m2 OVC
07:42 -16.8 °C -18 °C 34716.7 hPa Calm     86 % 0 mm 12.0 W/m2 OVC
07:47 -16.8 °C -18 °C 34716.7 hPa Calm     86 % 0 mm 14.0 W/m2 OVC
07:52 -16.8 °C -18 °C 34716.7 hPa Calm     86 % 0 mm 18.0 W/m2 OVC
07:57 -16.8 °C -18 °C 34726.8 hPa Calm     86 % 0 mm 23.0 W/m2 OVC
08:02 -16.8 °C -18 °C 34716.7 hPa Calm     86 % 0 mm 32.0 W/m2 OVC
08:07 -16.8 °C -18.1 °C 34726.8 hPa ESE 2.6 km/h   85 % 0 mm 37.0 W/m2 OVC
08:12 -16.6 °C -17.8 °C 34726.8 hPa Calm     85 % 0 mm 46.0 W/m2 OVC
08:17 -16.6 °C -17.8 °C 34740.4 hPa Calm     85 % 0 mm 53.0 W/m2 OVC
08:22 -16.2 °C -17.5 °C 34740.4 hPa Calm     85 % 0 mm 69.0 W/m2 OVC
08:27 -16.2 °C -17.7 °C 34740.4 hPa Calm     83 % 0 mm 81.0 W/m2 OVC
08:32 -15.9 °C -17.4 °C 34740.4 hPa Calm     83 % 0 mm 77.0 W/m2 BKN
08:37 -15.6 °C -17.2 °C 34740.4 hPa Calm     82 % 0 mm 111.0 W/m2 FEW
08:47 -15.6 °C -17.3 °C 34750.5 hPa Calm     80 % 0 mm 139.0 W/m2 CLR
08:52 -15.3 °C -17.3 °C 34750.5 hPa Calm     78 % 0 mm 163.0 W/m2 CLR
08:57 -15.3 °C -17.3 °C 34750.5 hPa Calm     77 % 0 mm 153.0 W/m2 CLR
09:02 -15.3 °C -17.4 °C 34750.5 hPa Calm     76 % 0 mm 199.0 W/m2 CLR
09:07 -15.3 °C -17.6 °C 34750.5 hPa Calm     75 % 0 mm 213.0 W/m2 CLR
09:12 -15 °C -17.3 °C 34750.5 hPa Calm     75 % 0 mm 227.0 W/m2 CLR
09:17 -14.7 °C -17.1 °C 34750.5 hPa Calm     74 % 0 mm 241.0 W/m2 CLR
09:22 -14.7 °C -17.3 °C 34760.7 hPa Calm     72 % 0 mm 260.0 W/m2 CLR
09:27 -14.4 °C -17 °C 34760.7 hPa Calm     72 % 0 mm 272.0 W/m2 CLR
09:32 -13.8 °C -16.4 °C 34760.7 hPa Calm     72 % 0 mm 285.0 W/m2 CLR
09:37 -13.2 °C -16 °C 34760.7 hPa Calm     70 % 0 mm 297.0 W/m2 CLR
09:42 -13.2 °C -16.1 °C 34760.7 hPa Calm     69 % 0 mm 311.0 W/m2 CLR
09:48 -13.2 °C -16.2 °C 34760.7 hPa Calm     68 % 0 mm 323.0 W/m2 CLR
09:53 -12.8 °C -16.1 °C 34760.7 hPa Calm     67 % 0 mm 334.0 W/m2 CLR
09:58 -12.6 °C -15.9 °C 34760.7 hPa Calm     66 % 0 mm 345.0 W/m2 CLR
10:03 -12.2 °C -15.7 °C 34760.7 hPa Calm   0.3 km/h 65 % 0 mm 353.0 W/m2 CLR
10:08 -12.2 °C -15.9 °C 34760.7 hPa Calm     63 % 0 mm 160.0 W/m2 CLR
10:18 -11.6 °C -15.6 °C 34774.2 hPa South 6 km/h 6 km/h 61 % 0 mm 387.0 W/m2 CLR
10:23 -11.6 °C -15.5 °C 34760.7 hPa Calm     62 % 0 mm 399.0 W/m2 CLR
10:28 -11.3 °C -15.3 °C 34774.2 hPa WSW 6 km/h 6 km/h 61 % 0 mm 411.0 W/m2 CLR
10:33 -11.3 °C -15.3 °C 34760.7 hPa West 6 km/h 6 km/h 61 % 0 mm 422.0 W/m2 CLR
10:38 -11.3 °C -15.3 °C 34760.7 hPa WSW 15 km/h 15 km/h 61 % 0 mm 429.0 W/m2 CLR
10:40 -11.3 °C -15.4 °C 34760.7 hPa West 9 km/h 9 km/h 60 % 0 mm 434.0 W/m2 CLR
10:45 -11 °C -15.2 °C 34760.7 hPa Calm     60 % 0 mm 445.0 W/m2 CLR
10:46 -11 °C -15.2 °C 34760.7 hPa Calm     60 % 0 mm 446.0 W/m2 CLR
10:51 -10.7 °C -14.9 °C 34760.7 hPa Calm     60 % 0 mm 457.0 W/m2 CLR
10:56 -10.7 °C -15.2 °C 34760.7 hPa Calm     58 % 0 mm 466.0 W/m2 CLR
11:01 -10.7 °C -15.1 °C 34750.5 hPa Calm     59 % 0 mm 473.0 W/m2 CLR
11:06 -10.7 °C -15.2 °C 34750.5 hPa Calm     58 % 0 mm 476.0 W/m2 CLR
11:11 -10.7 °C -15.2 °C 34750.5 hPa WSW 3.1 km/h 3.1 km/h 58 % 0 mm 489.0 W/m2 CLR
11:16 -10.7 °C -15.3 °C 34750.5 hPa Calm     57 % 0 mm 496.0 W/m2 CLR
11:21 -10.4 °C -15 °C 34750.5 hPa Calm     57 % 0 mm 501.0 W/m2 CLR
11:26 -10.7 °C -15.3 °C 34750.5 hPa Calm     57 % 0 mm 508.0 W/m2 CLR
11:31 -10.4 °C -15.2 °C 34750.5 hPa WNW 9 km/h 9 km/h 56 % 0 mm 515.0 W/m2 CLR
11:36 -10.1 °C -15 °C 34750.5 hPa Calm     55 % 0 mm 520.0 W/m2 CLR
11:41 -10.1 °C -15 °C 34750.5 hPa SW 6 km/h 6 km/h 55 % 0 mm 520.0 W/m2 CLR
11:46 -10.4 °C -15.4 °C 34740.4 hPa Calm     54 % 0 mm 526.0 W/m2 CLR
11:51 -10.1 °C -15.2 °C 34740.4 hPa Calm     54 % 0 mm 529.0 W/m2 CLR
11:56 -10.1 °C -15.4 °C 34726.8 hPa Calm     52 % 0 mm 534.0 W/m2 CLR
12:01 -9.8 °C -15.3 °C 34726.8 hPa Calm     51 % 0 mm 538.0 W/m2 CLR
12:06 -9.8 °C -15.3 °C 34726.8 hPa Calm     51 % 0 mm 545.0 W/m2 CLR
12:11 -9.8 °C -15.3 °C 34726.8 hPa NW 9 km/h 9 km/h 51 % 0 mm 545.0 W/m2 CLR
12:16 -9.8 °C -15.4 °C 34716.7 hPa NW 7.7 km/h 7.7 km/h 50 % 0 mm 548.0 W/m2 CLR
12:21 -9.4 °C -15.1 °C 34716.7 hPa Calm     51 % 0 mm 550.0 W/m2 CLR
12:26 -9.4 °C -15.1 °C 34716.7 hPa North 9 km/h 9 km/h 51 % 0 mm 555.0 W/m2 CLR
12:31 -9.1 °C -14.6 °C 34716.7 hPa Calm     52 % 0 mm 557.0 W/m2 CLR
12:36 -9.4 °C -14.9 °C 34716.7 hPa Calm     52 % 0 mm 555.0 W/m2 CLR
12:41 -9.4 °C -14.9 °C 34716.7 hPa NW 6 km/h   52 % 0 mm 555.0 W/m2 CLR
12:46 -9.4 °C -15.2 °C 34703.1 hPa NNW 6 km/h 6 km/h 50 % 0 mm 555.0 W/m2 CLR
12:51 -9.1 °C -14.9 °C 34703.1 hPa North 6 km/h 6 km/h 50 % 0 mm 555.0 W/m2 CLR
12:56 -9.1 °C -14.9 °C 34703.1 hPa NNW 9 km/h 9 km/h 50 % 0 mm 550.0 W/m2 CLR
13:01 -9.1 °C -14.9 °C 34703.1 hPa Calm     50 % 0 mm 554.0 W/m2 CLR
13:06 -9.1 °C -14.8 °C 34703.1 hPa North 6 km/h 6 km/h 51 % 0 mm 550.0 W/m2 CLR
13:11 -9.1 °C -14.8 °C 34703.1 hPa North 6 km/h 6 km/h 51 % 0 mm 550.0 W/m2 CLR
13:16 -9.1 °C -14.8 °C 34703.1 hPa NNW 9 km/h 9 km/h 51 % 0 mm 547.0 W/m2 CLR
13:21 -9.1 °C -14.8 °C 34703.1 hPa Calm     51 % 0 mm 545.0 W/m2 CLR
13:26 -8.8 °C -14.6 °C 34693 hPa NNW 6 km/h 6 km/h 50 % 0 mm 545.0 W/m2 CLR
13:31 -8.8 °C -14.5 °C 34693 hPa Calm     51 % 0 mm 538.0 W/m2 CLR
13:36 -8.8 °C -14.8 °C 34693 hPa North 11.9 km/h 11.9 km/h 49 % 0 mm 534.0 W/m2 CLR
13:41 -8.5 °C -14.5 °C 34693 hPa NW 9 km/h 9 km/h 49 % 0 mm 533.0 W/m2 CLR
13:46 -8.5 °C -14.5 °C 34693 hPa NW 6 km/h 6 km/h 49 % 0 mm 526.0 W/m2 CLR
13:51 -8.2 °C -14.1 °C 34693 hPa Calm   1 km/h 50 % 0 mm 522.0 W/m2 CLR
13:52 -8.5 °C -14.3 °C 34693 hPa NW 6 km/h   50 % 0 mm 520.0 W/m2 CLR
13:57 -8.8 °C -14.8 °C 34693 hPa NW 3.1 km/h   49 % 0 mm 519.0 W/m2 CLR
14:02 -8.8 °C -14.6 °C 34693 hPa Calm     50 % 0 mm 510.0 W/m2 CLR
14:07 -8.8 °C -14.8 °C 34693 hPa WNW 6 km/h 6 km/h 49 % 0 mm 504.0 W/m2 CLR
14:17 -8.5 °C -14.5 °C 34682.8 hPa NW 9 km/h 9 km/h 49 % 0 mm 492.0 W/m2 CLR
14:22 -8.5 °C -14.5 °C 34682.8 hPa NW 11.9 km/h 11.9 km/h 49 % 0 mm 483.0 W/m2 CLR
14:27 -8.5 °C -14.5 °C 34682.8 hPa West 2.6 km/h 2.6 km/h 49 % 0 mm 476.0 W/m2 CLR
14:32 -8.5 °C -14.5 °C 34682.8 hPa Calm     49 % 0 mm 468.0 W/m2 CLR
14:37 -8.5 °C -14.5 °C 34682.8 hPa West 9 km/h 9 km/h 49 % 0 mm 459.0 W/m2 CLR
14:42 -8.2 °C -14.4 °C 34682.8 hPa WNW 9 km/h 9 km/h 48 % 0 mm 452.0 W/m2 CLR
14:47 -8.2 °C -14.4 °C 34669.3 hPa Calm   0.8 km/h 48 % 0 mm 439.0 W/m2 CLR
14:52 -8.2 °C -14.4 °C 34669.3 hPa WNW 23.8 km/h 23.8 km/h 48 % 0 mm 431.0 W/m2 CLR
14:57 -7.9 °C -13.9 °C 34669.3 hPa NNW 10.3 km/h 10.3 km/h 49 % 0 mm 422.0 W/m2 CLR
15:02 -7.9 °C -13.9 °C 34669.3 hPa NW 20.8 km/h 20.8 km/h 49 % 0 mm 411.0 W/m2 CLR
15:07 -7.9 °C -14.1 °C 34669.3 hPa NNW 15 km/h 15 km/h 48 % 0 mm 397.0 W/m2 CLR
15:12 -7.9 °C -14.1 °C 34669.3 hPa North 15 km/h 15 km/h 48 % 0 mm 387.0 W/m2 CLR
15:17 -7.9 °C -14.1 °C 34669.3 hPa NW 15 km/h 15 km/h 48 % 0 mm 378.0 W/m2 CLR
15:22 -7.9 °C -14.1 °C 34669.3 hPa NW 15 km/h 15 km/h 48 % 0 mm 366.0 W/m2 CLR
15:27 -7.9 °C -14.1 °C 34669.3 hPa NNW 15 km/h 15 km/h 48 % 0 mm 355.0 W/m2 CLR
15:32 -7.9 °C -14.1 °C 34659.1 hPa NNW 11.9 km/h 11.9 km/h 48 % 0 mm 341.0 W/m2 CLR
15:37 -7.6 °C -13.8 °C 34659.1 hPa NW 20.9 km/h 20.9 km/h 48 % 0 mm 330.0 W/m2 CLR
15:42 -7.6 °C -13.8 °C 34659.1 hPa NW 11.9 km/h 11.9 km/h 48 % 0 mm 318.0 W/m2 CLR
15:47 -7.6 °C -13.8 °C 34659.1 hPa NW 9 km/h 9 km/h 48 % 0 mm 306.0 W/m2 CLR
15:52 -7.6 °C -13.8 °C 34659.1 hPa NW 9 km/h 9 km/h 48 % 0 mm 292.0 W/m2 CLR
15:58 -7.9 °C -14.1 °C 34659.1 hPa NW 11.9 km/h 11.9 km/h 48 % 0 mm 279.0 W/m2 CLR
16:03 -7.6 °C -13.8 °C 34645.6 hPa NW 3.1 km/h   48 % 0 mm 265.0 W/m2 CLR
16:08 -7.6 °C -13.8 °C 34645.6 hPa NNW 20.9 km/h 20.9 km/h 48 % 0 mm 255.0 W/m2 CLR
16:13 -7.9 °C -13.9 °C 34645.6 hPa Calm     49 % 0 mm 236.0 W/m2 CLR
16:18 -7.9 °C -13.9 °C 34645.6 hPa NNW 2.6 km/h 2.6 km/h 49 % 0 mm 221.0 W/m2 CLR
16:23 -7.9 °C -13.9 °C 34645.6 hPa NNW 15 km/h 15 km/h 49 % 0 mm 206.0 W/m2 CLR
16:28 -7.9 °C -13.9 °C 34645.6 hPa Calm     49 % 0 mm 190.0 W/m2 CLR
16:33 -7.9 °C -13.8 °C 34645.6 hPa NW 6 km/h 6 km/h 50 % 0 mm 176.0 W/m2 CLR
16:38 -7.9 °C -13.6 °C 34645.6 hPa NNW 15 km/h 15 km/h 51 % 0 mm 156.0 W/m2 CLR
16:43 -7.9 °C -13.4 °C 34645.6 hPa NNW 9 km/h 9 km/h 52 % 0 mm 142.0 W/m2 CLR
16:48 -7.9 °C -13.2 °C 34645.6 hPa North 7.7 km/h 7.7 km/h 54 % 0 mm 127.0 W/m2 CLR
16:53 -7.9 °C -13.2 °C 34645.6 hPa North 9 km/h 9 km/h 54 % 0 mm 111.0 W/m2 CLR
16:58 -8.2 °C -13.4 °C 34645.6 hPa North 6 km/h 6 km/h 54 % 0 mm 95.0 W/m2 CLR
17:03 -8.2 °C -13.3 °C 34645.6 hPa NNW 11.9 km/h 11.9 km/h 55 % 0 mm 83.0 W/m2 FEW
17:08 -8.2 °C -13.1 °C 34645.6 hPa Calm     56 % 0 mm 63.0 W/m2 SCT
17:13 -8.5 °C -13.4 °C 34645.6 hPa Calm     56 % 0 mm 56.0 W/m2 SCT
17:18 -8.5 °C -13.3 °C 34659.1 hPa Calm     57 % 0 mm 44.0 W/m2 SCT
17:23 -8.8 °C -13.4 °C 34659.1 hPa NNW 9 km/h 9 km/h 58 % 0 mm 35.0 W/m2 BKN
17:28 -8.8 °C -13.3 °C 34645.6 hPa North 15 km/h 15 km/h 59 % 0 mm 26.0 W/m2 BKN
17:33 -9.1 °C -13.4 °C 34659.1 hPa Calm     60 % 0 mm 21.0 W/m2 BKN
17:38 -9.4 °C -13.6 °C 34659.1 hPa North 3.1 km/h   61 % 0 mm 16.0 W/m2 BKN
17:43 -9.4 °C -13.4 °C 34659.1 hPa NNE 9 km/h 9 km/h 62 % 0 mm 12.0 W/m2 BKN
17:48 -9.8 °C -13.6 °C 34659.1 hPa NE 15 km/h 15 km/h 63 % 0 mm 9.0 W/m2 BKN
17:53 -9.8 °C -13.5 °C 34659.1 hPa NNE 12.9 km/h 12.9 km/h 64 % 0 mm 7.0 W/m2 BKN
17:58 -10.1 °C -13.7 °C 34659.1 hPa NNE 6 km/h   65 % 0 mm 0.0 W/m2 OVC
18:03 -10.1 °C -13.6 °C 34669.3 hPa NNE 3.1 km/h   66 % 0 mm 0.0 W/m2 CLR
18:08 -10.4 °C -13.8 °C 34669.3 hPa Calm     66 % 0 mm 0.0 W/m2 CLR
18:13 -10.7 °C -14.1 °C 34669.3 hPa Calm     66 % 0 mm 0.0 W/m2 CLR
18:18 -11 °C -14.2 °C 34669.3 hPa ENE 11.9 km/h 11.9 km/h 68 % 0 mm 0.0 W/m2 CLR
18:23 -11.3 °C -14.5 °C 34669.3 hPa NE 9 km/h 9 km/h 68 % 0 mm 0.0 W/m2 CLR
18:28 -11.3 °C -14.3 °C 34669.3 hPa NE 9 km/h 9 km/h 69 % 0 mm 0.0 W/m2 CLR
18:33 -11.3 °C -14.2 °C 34682.8 hPa ENE 12.9 km/h 12.9 km/h 70 % 0 mm 0.0 W/m2 CLR
18:38 -11.3 °C -14.1 °C 34682.8 hPa NE 15 km/h 15 km/h 71 % 0 mm 0.0 W/m2 CLR
18:43 -11.3 °C -14.1 °C 34682.8 hPa NE 9 km/h 9 km/h 71 % 0 mm 0.0 W/m2 CLR
18:48 -11.3 °C -14.1 °C 34682.8 hPa Calm     71 % 0 mm 0.0 W/m2 CLR
18:53 -11.3 °C -14 °C 34682.8 hPa Calm     72 % 0 mm 0.0 W/m2 CLR
18:58 -11.3 °C -14 °C 34693 hPa Calm     72 % 0 mm 0.0 W/m2 CLR
19:03 -11.3 °C -13.9 °C 34682.8 hPa Calm     73 % 0 mm 0.0 W/m2 CLR
19:08 -11.6 °C -14.2 °C 34693 hPa Calm     73 % 0 mm 0.0 W/m2 CLR
19:13 -11.6 °C -14.1 °C 34693 hPa ENE 9 km/h 9 km/h 74 % 0 mm 0.0 W/m2 CLR
19:18 -11.6 °C -14.2 °C 34693 hPa East 9 km/h 9 km/h 73 % 0 mm 0.0 W/m2 CLR
19:23 -11.9 °C -14.5 °C 34693 hPa ENE 17.9 km/h 17.9 km/h 73 % 0 mm 0.0 W/m2 CLR
19:28 -11.9 °C -14.5 °C 34693 hPa Calm     73 % 0 mm 0.0 W/m2 CLR
19:33 -12.2 °C -14.9 °C 34693 hPa Calm     72 % 0 mm 0.0 W/m2 CLR
19:38 -12.2 °C -14.9 °C 34693 hPa Calm     72 % 0 mm 0.0 W/m2 CLR
19:43 -12.6 °C -15.1 °C 34693 hPa Calm     73 % 0 mm 0.0 W/m2 CLR
19:48 -12.6 °C -15.1 °C 34693 hPa Calm     73 % 0 mm 0.0 W/m2 CLR
19:53 -12.6 °C -14.9 °C 34693 hPa Calm     74 % 0 mm 0.0 W/m2 CLR
19:58 -12.8 °C -15.2 °C 34693 hPa Calm     75 % 0 mm 0.0 W/m2 CLR
20:03 -12.8 °C -15.2 °C 34693 hPa Calm     75 % 0 mm 0.0 W/m2 CLR
20:08 -12.8 °C -15.2 °C 34693 hPa Calm     75 % 0 mm 0.0 W/m2 CLR
20:13 -13.2 °C -15.4 °C 34703.1 hPa Calm     76 % 0 mm 0.0 W/m2 CLR
20:18 -13.2 °C -15.4 °C 34703.1 hPa Calm     75 % 0 mm 0.0 W/m2 CLR
20:23 -13.2 °C -15.4 °C 34703.1 hPa Calm     75 % 0 mm 0.0 W/m2 CLR
20:28 -13.2 °C -15.4 °C 34703.1 hPa Calm     75 % 0 mm 0.0 W/m2 CLR
20:33 -13.2 °C -15.4 °C 34703.1 hPa Calm     75 % 0 mm 0.0 W/m2 CLR
20:38 -13.2 °C -15.4 °C 34703.1 hPa Calm     76 % 0 mm 0.0 W/m2 CLR
20:43 -13.2 °C -15.4 °C 34703.1 hPa Calm     76 % 0 mm 0.0 W/m2 CLR
20:48 -13.2 °C -15.4 °C 34703.1 hPa Calm     76 % 0 mm 0.0 W/m2 CLR
20:53 -13.2 °C -15.2 °C 34703.1 hPa Calm     77 % 0 mm 0.0 W/m2 CLR
20:58 -12.8 °C -14.8 °C 34703.1 hPa Calm     79 % 0 mm 0.0 W/m2 CLR
21:03 -12.8 °C -14.8 °C 34716.7 hPa Calm     79 % 0 mm 0.0 W/m2 CLR
21:08 -12.8 °C -14.8 °C 34716.7 hPa Calm     78 % 0 mm 0.0 W/m2 CLR
21:13 -12.8 °C -14.9 °C 34716.7 hPa Calm     77 % 0 mm 0.0 W/m2 CLR
21:18 -12.8 °C -14.8 °C 34716.7 hPa Calm     78 % 0 mm 0.0 W/m2 CLR
21:23 -12.8 °C -14.8 °C 34716.7 hPa Calm     79 % 0 mm 0.0 W/m2 CLR
21:29 -13.2 °C -14.9 °C 34716.7 hPa Calm     80 % 0 mm 0.0 W/m2 CLR
21:33 -13.2 °C -14.9 °C 34716.7 hPa Calm     80 % 0 mm 0.0 W/m2 CLR
21:38 -13.2 °C -14.8 °C 34716.7 hPa Calm     81 % 0 mm 0.0 W/m2 CLR
21:44 -13.2 °C -14.8 °C 34716.7 hPa Calm     81 % 0 mm 0.0 W/m2 CLR
21:49 -13.2 °C -14.9 °C 34716.7 hPa Calm     80 % 0 mm 0.0 W/m2 CLR
21:54 -13.4 °C -15.2 °C 34716.7 hPa Calm     80 % 0 mm 0.0 W/m2 CLR
21:59 -13.4 °C -15.2 °C 34716.7 hPa Calm     80 % 0 mm 0.0 W/m2 CLR
22:04 -13.4 °C -15.2 °C 34726.8 hPa Calm     80 % 0 mm 0.0 W/m2 CLR
22:09 -13.4 °C -15.2 °C 34726.8 hPa Calm     80 % 0 mm 0.0 W/m2 CLR
22:14 -13.8 °C -15.4 °C 34726.8 hPa Calm     81 % 0 mm 0.0 W/m2 CLR
22:19 -13.8 °C -15.4 °C 34726.8 hPa Calm     81 % 0 mm 0.0 W/m2 CLR
22:24 -14.1 °C -15.8 °C 34726.8 hPa Calm     81 % 0 mm 0.0 W/m2 CLR
22:29 -14.1 °C -15.7 °C 34726.8 hPa Calm     82 % 0 mm 0.0 W/m2 CLR
22:34 -14.1 °C -15.7 °C 34726.8 hPa Calm     82 % 0 mm 0.0 W/m2 CLR
22:39 -14.1 °C -15.7 °C 34726.8 hPa Calm     82 % 0 mm 0.0 W/m2 CLR
22:44 -14.1 °C -15.7 °C 34726.8 hPa Calm     82 % 0 mm 0.0 W/m2 CLR
22:49 -14.1 °C -15.7 °C 34726.8 hPa Calm     82 % 0 mm 0.0 W/m2 CLR
22:54 -14.1 °C -15.6 °C 34726.8 hPa Calm     83 % 0 mm 0.0 W/m2 CLR
22:59 -14.1 °C -15.6 °C 34726.8 hPa Calm     83 % 0 mm 0.0 W/m2 CLR
23:04 -14.4 °C -15.9 °C 34726.8 hPa Calm     83 % 0 mm 0.0 W/m2 CLR
23:09 -14.4 °C -15.9 °C 34726.8 hPa Calm     83 % 0 mm 0.0 W/m2 CLR
23:14 -14.4 °C -15.8 °C 34726.8 hPa Calm     84 % 0 mm 0.0 W/m2 CLR
23:19 -14.4 °C -15.8 °C 34726.8 hPa Calm     84 % 0 mm 0.0 W/m2 CLR
23:24 -14.4 °C -15.8 °C 34726.8 hPa Calm     84 % 0 mm 0.0 W/m2 CLR
23:29 -14.7 °C -16 °C 34726.8 hPa Calm     85 % 0 mm 0.0 W/m2 CLR
23:34 -14.7 °C -16.1 °C 34726.8 hPa Calm     84 % 0 mm 0.0 W/m2 CLR
23:39 -14.7 °C -16.1 °C 34726.8 hPa Calm     84 % 0 mm 0.0 W/m2 CLR
23:44 -14.7 °C -16.1 °C 34726.8 hPa Calm     84 % 0 mm 0.0 W/m2 CLR
23:49 -14.7 °C -16 °C 34726.8 hPa Calm     85 % 0 mm 0.0 W/m2 CLR
23:54 -14.7 °C -16.1 °C 34726.8 hPa Calm     84 % 0 mm 0.0 W/m2 CLR
23:59 -14.7 °C -16 °C 34726.8 hPa Calm     85 % 0 mm 0.0 W/m2 CLR
Lo Temps de Massalio
Compliments of Weather Underground - 1.25 mb